Jonesboro, Georgia
Current Conditions -  °F | °C
As of 12:52 AM on Thursday 18 Dec 2014 (Local Time) from KATL Reporting Station
Broken Clouds Broken Clouds  
Wind Chill: 32°   Ceiling: 25000
Heat Index: 39°   Visibility: 10mi
Dew Point: 33°   Wind: 10mph
Humidity: 79%   Direction: 320°NW
Pressure: 30.13"   Gusts: NA
Location:  33.52°N, 84.35°W
Report Text: KATL 180552Z 32009KT 10SM SCT200 BKN250 04/01 A3013 RMK AO2 SLP206 T00390006 10056 20039 56010
Loading
Personal Weather Stations






























Interactive Weather Map New forecast layout! Learn more

10-Day Weather Forecast

Advertisements
Track Severe Weather on mobile